createdAt,value
2022-08-28T00:00:03.745Z,0.00
2022-08-28T00:01:03.977Z,0.00
2022-08-28T00:02:04.201Z,0.00
2022-08-28T00:03:04.608Z,0.00
2022-08-28T00:04:04.777Z,0.00
2022-08-28T00:05:05.194Z,0.00
2022-08-28T00:06:05.438Z,0.00
2022-08-28T00:07:05.658Z,0.00
2022-08-28T00:08:06.009Z,0.00
2022-08-28T00:09:06.377Z,0.00
2022-08-28T00:10:06.580Z,0.00
2022-08-28T00:11:06.952Z,0.00
2022-08-28T00:12:07.180Z,0.00
2022-08-28T00:13:07.403Z,0.00
2022-08-28T00:14:07.644Z,0.00
2022-08-28T00:15:07.884Z,0.00
2022-08-28T00:16:08.229Z,0.00
2022-08-28T00:17:08.475Z,0.00
2022-08-28T00:18:08.775Z,0.00
2022-08-28T00:19:09.023Z,0.00
2022-08-28T00:20:09.257Z,0.00
2022-08-28T00:21:09.494Z,0.00
2022-08-28T00:22:09.736Z,0.00
2022-08-28T00:23:09.951Z,0.00
2022-08-28T00:24:10.282Z,0.00
2022-08-28T00:25:10.625Z,0.00
2022-08-28T00:26:10.955Z,0.00
2022-08-28T00:27:11.326Z,0.00
2022-08-28T00:28:23.877Z,0.00
2022-08-28T00:29:12.857Z,0.00
2022-08-28T00:30:12.159Z,0.00
2022-08-28T00:31:12.423Z,0.00
2022-08-28T00:32:12.645Z,0.00
2022-08-28T00:33:12.861Z,0.00
2022-08-28T00:34:13.190Z,0.00
2022-08-28T00:35:13.551Z,0.00
2022-08-28T00:36:13.769Z,0.00
2022-08-28T00:37:14.099Z,0.00
2022-08-28T00:38:14.772Z,0.00
2022-08-28T00:39:14.695Z,0.00
2022-08-28T00:40:15.052Z,0.00
2022-08-28T00:41:15.325Z,0.00
2022-08-28T00:42:15.633Z,0.00
2022-08-28T00:43:15.964Z,0.00
2022-08-28T00:44:16.350Z,0.00
2022-08-28T00:45:16.575Z,0.00
2022-08-28T00:46:16.819Z,0.00
2022-08-28T00:47:17.124Z,0.00
2022-08-28T00:48:17.487Z,0.00
2022-08-28T00:49:17.740Z,0.00
2022-08-28T00:50:17.973Z,0.00
2022-08-28T00:51:18.176Z,0.00
2022-08-28T00:52:18.540Z,0.00
2022-08-28T00:53:18.758Z,0.00
2022-08-28T00:54:19.099Z,0.00
2022-08-28T00:55:19.438Z,0.00
2022-08-28T00:56:19.854Z,0.00
2022-08-28T00:57:20.100Z,0.00
2022-08-28T00:58:20.328Z,0.00
2022-08-28T00:59:20.659Z,0.00
2022-08-28T01:00:21.000Z,0.00
2022-08-28T01:01:21.405Z,0.00
2022-08-28T01:02:21.657Z,0.00
2022-08-28T01:03:25.152Z,0.00
2022-08-28T01:04:22.261Z,0.00
2022-08-28T01:05:22.612Z,0.00
2022-08-28T01:06:22.805Z,0.00
2022-08-28T01:07:23.153Z,0.00
2022-08-28T01:08:23.537Z,0.00
2022-08-28T01:09:23.795Z,0.00
2022-08-28T01:10:24.144Z,0.00
2022-08-28T01:11:24.486Z,0.00
2022-08-28T01:12:24.807Z,0.00
2022-08-28T01:13:25.163Z,0.00
2022-08-28T01:14:25.367Z,0.00
2022-08-28T01:15:25.716Z,0.00
2022-08-28T01:16:28.379Z,0.00
2022-08-28T01:17:27.357Z,0.00
2022-08-28T01:18:26.630Z,0.00
2022-08-28T01:19:26.987Z,0.00
2022-08-28T01:20:27.355Z,0.00
2022-08-28T01:21:27.570Z,0.00
2022-08-28T01:22:27.909Z,0.00
2022-08-28T01:23:28.239Z,0.00
2022-08-28T01:24:28.481Z,0.00
2022-08-28T01:25:28.701Z,0.00
2022-08-28T01:26:29.059Z,0.00
2022-08-28T01:27:29.425Z,0.00
2022-08-28T01:28:29.662Z,0.00
2022-08-28T01:29:29.922Z,0.00
2022-08-28T01:30:30.131Z,0.00
2022-08-28T01:31:30.534Z,0.00
2022-08-28T01:32:30.751Z,0.00
2022-08-28T01:33:30.994Z,0.00
2022-08-28T01:34:31.245Z,0.00
2022-08-28T01:35:31.471Z,0.00
2022-08-28T01:36:31.854Z,0.00
2022-08-28T01:37:32.065Z,0.00
2022-08-28T01:38:32.394Z,0.00
2022-08-28T01:39:32.769Z,0.00
2022-08-28T01:40:33.033Z,0.00
2022-08-28T01:41:33.279Z,0.00
2022-08-28T01:42:33.488Z,0.00
2022-08-28T01:43:33.829Z,0.00
2022-08-28T01:44:34.175Z,0.00
2022-08-28T01:45:34.534Z,0.00
2022-08-28T01:46:34.799Z,0.00
2022-08-28T01:47:35.020Z,0.00
2022-08-28T01:48:35.267Z,0.00
2022-08-28T01:49:35.490Z,0.00
2022-08-28T01:50:35.721Z,0.00
2022-08-28T01:51:38.267Z,0.00
2022-08-28T01:52:36.363Z,0.00
2022-08-28T01:53:36.611Z,0.00
2022-08-28T01:54:36.938Z,0.00
2022-08-28T01:55:37.073Z,0.00
2022-08-28T01:56:37.383Z,0.00
2022-08-28T01:57:37.756Z,0.00
2022-08-28T01:58:38.574Z,0.00
2022-08-28T01:59:38.333Z,0.00
2022-08-28T02:00:38.615Z,0.00
2022-08-28T02:01:38.988Z,0.00
2022-08-28T02:02:39.224Z,0.00
2022-08-28T02:03:39.464Z,0.00
2022-08-28T02:04:39.723Z,0.00
2022-08-28T02:05:39.936Z,0.00
2022-08-28T02:06:40.215Z,0.00
2022-08-28T02:07:40.428Z,0.00
2022-08-28T02:08:40.759Z,0.00
2022-08-28T02:09:41.129Z,0.00
2022-08-28T02:10:41.342Z,0.00
2022-08-28T02:11:41.720Z,0.00
2022-08-28T02:12:41.940Z,0.00
2022-08-28T02:13:42.312Z,0.00
2022-08-28T02:14:42.640Z,0.00
2022-08-28T02:15:43.134Z,0.00
2022-08-28T02:16:43.193Z,0.00
2022-08-28T02:17:43.541Z,0.00
2022-08-28T02:18:43.763Z,0.00
2022-08-28T02:19:44.175Z,0.00
2022-08-28T02:20:44.399Z,0.00
2022-08-28T02:21:44.742Z,0.00
2022-08-28T02:22:45.103Z,0.00
2022-08-28T02:23:45.338Z,0.00
2022-08-28T02:24:45.554Z,0.00
2022-08-28T02:25:45.924Z,0.00
2022-08-28T02:26:46.145Z,0.00
2022-08-28T02:27:46.503Z,0.00
2022-08-28T02:28:46.717Z,0.00
2022-08-28T02:29:47.110Z,0.00
2022-08-28T02:30:47.386Z,0.00
2022-08-28T02:31:47.629Z,0.00
2022-08-28T02:32:47.877Z,0.00
2022-08-28T02:33:48.120Z,0.00
2022-08-28T02:34:49.336Z,0.00
2022-08-28T02:35:48.600Z,0.00
2022-08-28T02:36:48.996Z,0.00
2022-08-28T02:37:49.222Z,0.00
2022-08-28T02:38:51.903Z,0.00
2022-08-28T02:39:49.784Z,0.00
2022-08-28T02:40:50.049Z,0.00
2022-08-28T02:41:50.407Z,0.00
2022-08-28T02:42:50.644Z,0.00
2022-08-28T02:43:50.951Z,0.00
2022-08-28T02:44:51.337Z,0.00
2022-08-28T02:45:51.586Z,0.00
2022-08-28T02:46:51.823Z,0.00
2022-08-28T02:47:52.139Z,0.00
2022-08-28T02:48:52.334Z,0.00
2022-08-28T02:49:52.698Z,0.00
2022-08-28T02:50:52.899Z,0.00
2022-08-28T02:51:53.219Z,0.00
2022-08-28T02:52:53.529Z,0.00
2022-08-28T02:53:53.753Z,0.00
2022-08-28T02:54:54.043Z,0.00
2022-08-28T02:55:54.231Z,0.00
2022-08-28T02:56:54.581Z,0.00
2022-08-28T02:57:54.804Z,0.00
2022-08-28T02:58:55.271Z,0.00
2022-08-28T02:59:55.472Z,0.00
2022-08-28T03:00:55.768Z,0.00
2022-08-28T03:01:55.952Z,0.00
2022-08-28T03:02:56.329Z,0.00
2022-08-28T03:03:56.527Z,0.00
2022-08-28T03:04:57.276Z,0.00
2022-08-28T03:05:57.179Z,0.00
2022-08-28T03:06:57.456Z,0.00
2022-08-28T03:07:57.710Z,0.00
2022-08-28T03:08:58.027Z,0.00
2022-08-28T03:09:58.366Z,0.00
2022-08-28T03:10:58.719Z,0.00
2022-08-28T03:11:59.012Z,0.00
2022-08-28T03:12:59.232Z,0.00
2022-08-28T03:13:59.617Z,0.00
2022-08-28T03:14:59.815Z,0.00
2022-08-28T03:16:00.049Z,0.00
2022-08-28T03:17:00.488Z,0.00
2022-08-28T03:18:00.718Z,0.00
2022-08-28T03:19:01.002Z,0.00
2022-08-28T03:20:01.220Z,0.00
2022-08-28T03:21:01.759Z,0.00
2022-08-28T03:22:01.859Z,0.00
2022-08-28T03:23:02.072Z,0.00
2022-08-28T03:24:02.432Z,0.00
2022-08-28T03:25:02.712Z,0.00
2022-08-28T03:26:02.929Z,0.00
2022-08-28T03:27:03.262Z,0.00
2022-08-28T03:28:03.609Z,0.00
2022-08-28T03:29:03.895Z,0.00
2022-08-28T03:30:04.123Z,0.00
2022-08-28T03:31:04.493Z,0.00
2022-08-28T03:32:04.744Z,0.00
2022-08-28T03:33:04.974Z,0.00
2022-08-28T03:34:05.699Z,0.00
2022-08-28T03:35:05.477Z,0.00
2022-08-28T03:36:05.740Z,0.00
2022-08-28T03:37:05.977Z,0.00
2022-08-28T03:38:06.387Z,0.00
2022-08-28T03:39:06.621Z,0.00
2022-08-28T03:40:06.879Z,0.00
2022-08-28T03:41:07.148Z,0.00
2022-08-28T03:42:07.361Z,4.00
2022-08-28T03:43:07.698Z,4.00
2022-08-28T03:44:08.041Z,0.00
2022-08-28T03:45:08.370Z,4.00
2022-08-28T03:46:08.780Z,4.00
2022-08-28T03:47:09.002Z,4.00
2022-08-28T03:48:09.412Z,4.00
2022-08-28T03:49:09.660Z,4.00
2022-08-28T03:50:09.967Z,4.00
2022-08-28T03:51:10.204Z,4.00
2022-08-28T03:52:10.414Z,4.00
2022-08-28T03:53:10.754Z,8.00
2022-08-28T03:54:11.110Z,8.00
2022-08-28T03:55:11.310Z,8.00
2022-08-28T03:56:11.628Z,8.00
2022-08-28T03:57:11.961Z,8.00
2022-08-28T03:58:18.905Z,8.00
2022-08-28T03:59:13.635Z,8.00
2022-08-28T04:00:12.902Z,8.00
2022-08-28T04:01:13.317Z,12.00
2022-08-28T04:02:13.545Z,12.00
2022-08-28T04:03:13.942Z,12.00
2022-08-28T04:04:14.168Z,12.00
2022-08-28T04:05:14.507Z,16.00
2022-08-28T04:06:14.870Z,20.00
2022-08-28T04:07:15.091Z,20.00
2022-08-28T04:08:15.438Z,16.00
2022-08-28T04:09:15.811Z,16.00
2022-08-28T04:10:16.047Z,16.00
2022-08-28T04:11:16.402Z,16.00
2022-08-28T04:12:16.602Z,20.00
2022-08-28T04:13:16.950Z,20.00
2022-08-28T04:14:17.324Z,24.00
2022-08-28T04:15:17.557Z,28.00
2022-08-28T04:16:17.950Z,28.00
2022-08-28T04:17:18.195Z,28.00
2022-08-28T04:18:18.584Z,36.00
2022-08-28T04:19:18.824Z,36.00
2022-08-28T04:20:19.087Z,32.00
2022-08-28T04:21:19.307Z,40.00
2022-08-28T04:22:19.658Z,36.00
2022-08-28T04:23:19.883Z,40.00
2022-08-28T04:24:20.233Z,40.00
2022-08-28T04:25:20.459Z,44.00
2022-08-28T04:26:21.660Z,48.00
2022-08-28T04:27:20.946Z,52.00
2022-08-28T04:28:21.197Z,52.00
2022-08-28T04:29:21.419Z,56.00
2022-08-28T04:30:21.647Z,60.00
2022-08-28T04:31:31.689Z,68.00
2022-08-28T04:32:23.469Z,68.00
2022-08-28T04:33:22.501Z,64.00
2022-08-28T04:34:22.889Z,64.00
2022-08-28T04:35:23.101Z,68.00
2022-08-28T04:36:23.424Z,72.00
2022-08-28T04:37:23.771Z,80.00
2022-08-28T04:38:24.083Z,92.00
2022-08-28T04:39:24.451Z,96.00
2022-08-28T04:40:24.874Z,104.00
2022-08-28T04:41:25.033Z,112.00
2022-08-28T04:42:25.279Z,120.00
2022-08-28T04:43:25.507Z,128.00
2022-08-28T04:44:25.767Z,140.00
2022-08-28T04:45:26.098Z,152.00
2022-08-28T04:46:26.349Z,156.00
2022-08-28T04:47:26.645Z,148.00
2022-08-28T04:48:26.882Z,144.00
2022-08-28T04:49:27.268Z,148.00
2022-08-28T04:50:27.487Z,164.00
2022-08-28T04:51:27.747Z,160.00
2022-08-28T04:52:28.027Z,168.00
2022-08-28T04:53:28.264Z,172.00
2022-08-28T04:54:28.517Z,168.00
2022-08-28T04:55:53.768Z,172.00
2022-08-28T04:56:30.012Z,172.00
2022-08-28T04:57:32.234Z,172.00
2022-08-28T04:58:30.615Z,176.00
2022-08-28T04:59:29.930Z,184.00
2022-08-28T05:00:30.171Z,196.00
2022-08-28T05:01:30.495Z,200.00
2022-08-28T05:02:30.797Z,216.00
2022-08-28T05:03:31.486Z,228.00
2022-08-28T05:04:31.613Z,240.00
2022-08-28T05:05:31.707Z,256.00
2022-08-28T05:06:31.955Z,268.00
2022-08-28T05:07:32.210Z,288.00
2022-08-28T05:08:32.487Z,304.00
2022-08-28T05:09:32.757Z,328.00
2022-08-28T05:10:32.986Z,340.00
2022-08-28T05:11:35.148Z,364.00
2022-08-28T05:12:33.647Z,384.00
2022-08-28T05:13:33.988Z,404.00
2022-08-28T05:14:34.245Z,420.00
2022-08-28T05:15:34.522Z,436.00
2022-08-28T05:16:34.935Z,456.00
2022-08-28T05:17:35.048Z,472.00
2022-08-28T05:18:35.791Z,492.00
2022-08-28T05:19:35.593Z,508.00
2022-08-28T05:20:35.900Z,512.00
2022-08-28T05:21:36.160Z,520.00
2022-08-28T05:22:36.411Z,524.00
2022-08-28T05:23:36.753Z,524.00
2022-08-28T05:24:36.881Z,532.00
2022-08-28T05:25:44.645Z,532.00
2022-08-28T05:26:38.927Z,544.00
2022-08-28T05:27:37.722Z,560.00
2022-08-28T05:28:37.998Z,560.00
2022-08-28T05:29:38.272Z,572.00
2022-08-28T05:30:38.552Z,600.00
2022-08-28T05:31:38.951Z,624.00
2022-08-28T05:32:39.095Z,628.00
2022-08-28T05:33:39.496Z,652.00
2022-08-28T05:34:39.564Z,652.00
2022-08-28T05:35:39.985Z,656.00
2022-08-28T05:36:40.264Z,648.00
2022-08-28T05:37:40.524Z,648.00
2022-08-28T05:38:40.793Z,656.00
2022-08-28T05:39:41.005Z,700.00
2022-08-28T05:40:41.268Z,712.00
2022-08-28T05:41:41.588Z,752.00
2022-08-28T05:42:41.847Z,804.00
2022-08-28T05:43:42.204Z,848.00
2022-08-28T05:44:42.348Z,892.00
2022-08-28T05:45:42.615Z,924.00
2022-08-28T05:46:42.888Z,944.00
2022-08-28T05:47:43.207Z,944.00
2022-08-28T05:48:43.449Z,952.00
2022-08-28T05:49:43.718Z,960.00
2022-08-28T05:50:47.615Z,964.00
2022-08-28T05:51:44.406Z,976.00
2022-08-28T05:52:44.519Z,996.00
2022-08-28T05:53:44.794Z,1012.00
2022-08-28T05:54:45.058Z,1032.00
2022-08-28T05:55:45.311Z,1056.00
2022-08-28T05:56:46.531Z,1088.00
2022-08-28T05:57:45.835Z,1124.00
2022-08-28T05:58:46.114Z,1172.00
2022-08-28T05:59:46.354Z,1228.00
2022-08-28T06:00:46.613Z,1256.00
2022-08-28T06:01:46.959Z,1256.00
2022-08-28T06:02:47.386Z,1224.00
2022-08-28T06:03:47.679Z,1220.00
2022-08-28T06:04:47.780Z,1236.00
2022-08-28T06:05:48.036Z,1248.00
2022-08-28T06:06:48.424Z,1300.00
2022-08-28T06:07:48.549Z,1356.00
2022-08-28T06:08:58.541Z,1412.00
2022-08-28T06:09:50.057Z,1488.00
2022-08-28T06:10:50.905Z,1576.00
2022-08-28T06:11:49.614Z,1656.00
2022-08-28T06:12:49.860Z,1732.00
2022-08-28T06:13:50.151Z,1812.00
2022-08-28T06:14:50.474Z,1864.00
2022-08-28T06:15:51.007Z,1908.00
2022-08-28T06:16:50.941Z,1940.00
2022-08-28T06:17:51.214Z,1952.00
2022-08-28T06:18:51.573Z,1944.00
2022-08-28T06:19:51.895Z,2020.00
2022-08-28T06:20:52.144Z,2124.00
2022-08-28T06:21:52.487Z,2272.00
2022-08-28T06:22:52.735Z,2484.00
2022-08-28T06:23:53.027Z,2652.00
2022-08-28T06:24:53.245Z,2776.00
2022-08-28T06:25:53.509Z,2896.00
2022-08-28T06:26:56.497Z,2984.00
2022-08-28T06:27:55.118Z,2952.00
2022-08-28T06:28:54.294Z,2988.00
2022-08-28T06:29:54.558Z,3028.00
2022-08-28T06:31:18.548Z,3124.00
2022-08-28T06:31:56.218Z,3156.00
2022-08-28T06:32:55.322Z,3124.00
2022-08-28T06:33:55.679Z,3088.00
2022-08-28T06:34:55.949Z,3088.00
2022-08-28T06:35:56.231Z,3148.00
2022-08-28T06:36:56.492Z,3232.00
2022-08-28T06:37:56.789Z,3248.00
2022-08-28T06:38:57.052Z,3240.00
2022-08-28T06:39:57.345Z,3192.00
2022-08-28T06:40:57.595Z,3180.00
2022-08-28T06:41:57.930Z,3296.00
2022-08-28T06:42:58.236Z,3256.00
2022-08-28T06:43:58.493Z,3268.00
2022-08-28T06:44:58.784Z,3372.00
2022-08-28T06:45:59.119Z,3460.00
2022-08-28T06:46:59.374Z,3512.00
2022-08-28T06:47:59.641Z,3660.00
2022-08-28T06:48:59.899Z,3860.00
2022-08-28T06:50:00.158Z,3956.00
2022-08-28T06:51:00.396Z,4044.00
2022-08-28T06:52:00.647Z,4080.00
2022-08-28T06:53:00.887Z,4168.00
2022-08-28T06:54:01.209Z,4056.00
2022-08-28T06:55:01.458Z,4168.00
2022-08-28T06:56:01.746Z,4356.00
2022-08-28T06:57:02.000Z,4400.00
2022-08-28T06:58:02.400Z,4532.00
2022-08-28T06:59:02.540Z,4728.00
2022-08-28T07:00:02.789Z,4668.00
2022-08-28T07:01:03.277Z,4744.00
2022-08-28T07:02:03.441Z,5256.00
2022-08-28T07:03:03.796Z,5384.00
2022-08-28T07:04:04.056Z,5544.00
2022-08-28T07:05:04.324Z,5132.00
2022-08-28T07:06:04.594Z,5448.00
2022-08-28T07:07:04.850Z,5172.00
2022-08-28T07:08:05.094Z,4924.00
2022-08-28T07:09:05.490Z,5512.00
2022-08-28T07:10:05.605Z,5596.00
2022-08-28T07:11:05.837Z,5536.00
2022-08-28T07:12:06.087Z,5516.00
2022-08-28T07:13:06.406Z,5116.00
2022-08-28T07:14:06.686Z,5864.00
2022-08-28T07:15:06.936Z,5840.00
2022-08-28T07:16:07.292Z,5528.00
2022-08-28T07:17:07.421Z,5888.00
2022-08-28T07:18:07.695Z,5572.00
2022-08-28T07:19:07.959Z,5880.00
2022-08-28T07:20:08.211Z,5668.00
2022-08-28T07:21:12.305Z,6056.00
2022-08-28T07:22:08.693Z,6160.00
2022-08-28T07:23:08.921Z,6420.00
2022-08-28T07:24:09.201Z,6060.00
2022-08-28T07:25:09.461Z,5236.00
2022-08-28T07:26:09.723Z,5832.00
2022-08-28T07:27:09.982Z,6052.00
2022-08-28T07:28:10.244Z,6700.00
2022-08-28T07:29:11.696Z,6620.00
2022-08-28T07:30:10.733Z,6760.00
2022-08-28T07:31:11.056Z,6500.00
2022-08-28T07:32:12.268Z,6844.00
2022-08-28T07:33:11.589Z,5940.00
2022-08-28T07:34:11.847Z,7032.00
2022-08-28T07:35:12.132Z,7808.00
2022-08-28T07:36:16.017Z,7612.00
2022-08-28T07:37:15.424Z,7152.00
2022-08-28T07:38:13.118Z,8348.00
2022-08-28T07:39:13.822Z,8112.00
2022-08-28T07:40:13.689Z,8220.00
2022-08-28T07:41:14.010Z,8720.00
2022-08-28T07:42:14.272Z,8808.00
2022-08-28T07:43:14.538Z,9016.00
2022-08-28T07:44:14.814Z,8580.00
2022-08-28T07:45:15.065Z,8828.00
2022-08-28T07:46:15.386Z,9996.00
2022-08-28T07:47:15.704Z,10300.00
2022-08-28T07:48:16.492Z,10136.00
2022-08-28T07:49:17.345Z,9088.00
2022-08-28T07:50:16.519Z,8944.00
2022-08-28T07:51:16.752Z,8200.00
2022-08-28T07:52:17.135Z,7280.00
2022-08-28T07:53:17.283Z,6432.00
2022-08-28T07:54:18.206Z,6952.00
2022-08-28T07:55:17.815Z,5780.00
2022-08-28T07:56:18.064Z,5360.00
2022-08-28T07:57:18.319Z,5224.00
2022-08-28T07:58:18.578Z,6336.00
2022-08-28T07:59:19.345Z,7008.00
2022-08-28T08:00:19.217Z,6104.00
2022-08-28T08:01:19.373Z,6164.00
2022-08-28T08:02:19.636Z,7748.00
2022-08-28T08:03:20.002Z,7012.00
2022-08-28T08:04:20.140Z,7156.00
2022-08-28T08:05:20.395Z,5880.00
2022-08-28T08:06:20.711Z,5824.00
2022-08-28T08:07:20.972Z,5520.00
2022-08-28T08:08:21.272Z,5012.00
2022-08-28T08:09:22.289Z,4880.00
2022-08-28T08:10:21.942Z,5196.00
2022-08-28T08:11:22.212Z,4716.00
2022-08-28T08:12:22.505Z,5076.00
2022-08-28T08:13:22.795Z,5908.00
2022-08-28T08:14:23.057Z,4488.00
2022-08-28T08:15:23.325Z,4844.00
2022-08-28T08:16:23.612Z,4468.00
2022-08-28T08:17:24.668Z,4696.00
2022-08-28T08:18:24.231Z,4300.00
2022-08-28T08:19:24.331Z,4172.00
2022-08-28T08:20:24.632Z,4016.00
2022-08-28T08:21:29.567Z,4492.00
2022-08-28T08:22:26.149Z,4456.00
2022-08-28T08:23:25.470Z,4928.00
2022-08-28T08:24:25.725Z,4836.00
2022-08-28T08:25:25.993Z,4528.00
2022-08-28T08:26:26.244Z,4436.00
2022-08-28T08:27:26.520Z,4068.00
2022-08-28T08:28:26.800Z,4288.00
2022-08-28T08:29:27.061Z,5208.00
2022-08-28T08:30:27.454Z,4688.00
2022-08-28T08:31:27.690Z,4376.00
2022-08-28T08:32:27.804Z,4116.00
2022-08-28T08:33:28.054Z,4088.00
2022-08-28T08:34:28.306Z,4768.00
2022-08-28T08:35:28.555Z,5320.00
2022-08-28T08:36:28.818Z,5964.00
2022-08-28T08:37:29.097Z,6720.00
2022-08-28T08:38:29.386Z,7048.00
2022-08-28T08:39:29.668Z,7720.00
2022-08-28T08:40:29.922Z,8820.00
2022-08-28T08:41:30.166Z,9660.00
2022-08-28T08:42:30.438Z,9504.00
2022-08-28T08:43:31.514Z,8184.00
2022-08-28T08:44:33.468Z,7784.00
2022-08-28T08:45:31.669Z,7984.00
2022-08-28T08:46:31.526Z,7788.00
2022-08-28T08:47:31.835Z,9108.00
2022-08-28T08:55:04.962Z,6128.00
2022-08-28T08:56:05.233Z,7292.00
2022-08-28T08:57:05.483Z,7604.00
2022-08-28T08:58:34.030Z,5972.00
2022-08-28T08:59:34.401Z,5976.00
2022-08-28T09:00:34.539Z,6968.00
2022-08-28T09:01:28.731Z,7864.00
2022-08-28T09:02:31.391Z,7920.00
2022-08-28T09:03:29.340Z,7652.00
2022-08-28T09:04:29.508Z,8136.00
2022-08-28T09:05:29.782Z,9036.00
2022-08-28T09:06:30.061Z,7868.00
2022-08-28T09:07:30.343Z,7688.00
2022-08-28T09:08:30.644Z,8040.00
2022-08-28T09:09:30.961Z,7164.00
2022-08-28T09:10:31.316Z,6728.00
2022-08-28T09:11:31.485Z,7128.00
2022-08-28T09:12:31.784Z,6116.00
2022-08-28T09:13:32.061Z,4836.00
2022-08-28T09:14:32.323Z,4216.00
2022-08-28T09:15:32.632Z,4600.00
2022-08-28T09:16:32.960Z,5880.00
2022-08-28T09:17:33.256Z,6468.00
2022-08-28T09:18:33.531Z,7884.00
2022-08-28T09:19:33.797Z,7836.00
2022-08-28T09:20:34.087Z,8160.00
2022-08-28T09:21:34.401Z,7728.00
2022-08-28T09:22:34.797Z,6888.00
2022-08-28T09:23:34.958Z,7208.00
2022-08-28T09:24:35.209Z,7800.00
2022-08-28T09:25:35.490Z,8168.00
2022-08-28T09:26:35.786Z,9332.00
2022-08-28T09:27:39.540Z,9952.00
2022-08-28T09:28:36.446Z,9624.00
2022-08-28T09:29:36.568Z,10168.00
2022-08-28T09:30:36.864Z,9792.00
2022-08-28T09:31:37.158Z,9708.00
2022-08-28T09:32:37.413Z,9948.00
2022-08-28T09:33:37.695Z,10064.00
2022-08-28T09:34:39.104Z,10388.00
2022-08-28T09:35:38.265Z,10760.00
2022-08-28T09:36:38.466Z,10328.00
2022-08-28T09:37:38.775Z,10604.00
2022-08-28T09:38:39.251Z,9460.00
2022-08-28T09:39:39.390Z,8372.00
2022-08-28T09:40:39.790Z,8196.00
2022-08-28T09:41:40.059Z,8680.00
2022-08-28T09:42:40.226Z,9724.00
2022-08-28T09:43:40.501Z,10028.00
2022-08-28T09:44:40.802Z,10244.00
2022-08-28T09:45:41.021Z,9804.00
2022-08-28T09:46:41.387Z,10400.00
2022-08-28T09:47:46.064Z,11092.00
2022-08-28T09:48:42.783Z,10744.00
2022-08-28T09:49:42.157Z,9876.00
2022-08-28T09:50:42.462Z,8868.00
2022-08-28T09:51:42.776Z,7124.00
2022-08-28T09:52:43.073Z,7192.00
2022-08-28T09:53:44.284Z,6020.00
2022-08-28T09:54:43.686Z,6156.00
2022-08-28T09:55:43.988Z,7988.00
2022-08-28T09:56:44.315Z,8284.00
2022-08-28T09:57:44.588Z,5692.00
2022-08-28T09:58:44.908Z,3988.00
2022-08-28T09:59:45.241Z,4224.00
2022-08-28T10:00:45.528Z,5668.00
2022-08-28T10:01:45.837Z,8252.00
2022-08-28T10:02:46.149Z,6892.00
2022-08-28T10:03:46.424Z,4896.00
2022-08-28T10:04:46.725Z,5212.00
2022-08-28T10:05:47.178Z,4320.00
2022-08-28T10:06:47.332Z,4872.00
2022-08-28T10:07:47.613Z,4164.00
2022-08-28T10:08:47.892Z,3540.00
2022-08-28T10:09:48.193Z,3568.00
2022-08-28T10:10:48.447Z,4500.00
2022-08-28T10:11:48.723Z,5168.00
2022-08-28T10:12:49.004Z,5864.00
2022-08-28T10:13:49.278Z,6288.00
2022-08-28T10:14:49.533Z,5432.00
2022-08-28T10:15:49.876Z,4356.00
2022-08-28T10:16:50.019Z,4436.00
2022-08-28T10:17:50.289Z,5668.00
2022-08-28T10:18:50.577Z,7516.00
2022-08-28T10:19:50.838Z,7564.00
2022-08-28T10:20:51.099Z,6308.00
2022-08-28T10:21:53.096Z,4928.00
2022-08-28T10:22:51.663Z,4016.00
2022-08-28T10:23:51.928Z,3880.00
2022-08-28T10:24:52.212Z,4008.00
2022-08-28T10:25:52.462Z,4876.00
2022-08-28T10:26:52.721Z,6472.00
2022-08-28T10:27:52.972Z,6172.00
2022-08-28T10:28:53.322Z,4836.00
2022-08-28T10:29:53.566Z,4680.00
2022-08-28T10:30:53.865Z,3900.00
2022-08-28T10:31:54.064Z,3860.00
2022-08-28T10:32:54.335Z,4540.00
2022-08-28T10:33:56.566Z,5548.00
2022-08-28T10:34:54.947Z,5564.00
2022-08-28T10:35:55.208Z,4868.00
2022-08-28T10:36:55.499Z,4232.00
2022-08-28T10:37:55.838Z,3756.00
2022-08-28T10:38:55.989Z,3672.00
2022-08-28T10:39:56.282Z,4732.00
2022-08-28T10:40:56.509Z,6644.00
2022-08-28T10:41:56.768Z,8104.00
2022-08-28T10:42:57.035Z,8644.00
2022-08-28T10:43:57.280Z,7616.00
2022-08-28T10:44:57.571Z,5956.00
2022-08-28T10:45:57.859Z,5976.00
2022-08-28T10:46:58.164Z,6776.00
2022-08-28T10:47:58.472Z,6888.00
2022-08-28T10:48:58.733Z,6000.00
2022-08-28T10:49:59.006Z,5200.00
2022-08-28T10:50:59.273Z,4660.00
2022-08-28T10:51:59.526Z,4412.00
2022-08-28T10:52:59.807Z,3716.00
2022-08-28T10:54:00.066Z,3024.00
2022-08-28T10:55:00.332Z,2684.00
2022-08-28T10:56:00.579Z,2624.00
2022-08-28T10:57:00.860Z,2636.00
2022-08-28T10:58:01.106Z,2736.00
2022-08-28T10:59:01.360Z,2936.00
2022-08-28T11:00:01.612Z,3348.00
2022-08-28T11:01:01.929Z,4260.00
2022-08-28T11:02:02.220Z,5488.00
2022-08-28T11:03:02.533Z,6112.00
2022-08-28T11:04:02.821Z,5732.00
2022-08-28T11:05:03.137Z,5676.00
2022-08-28T11:06:03.376Z,5080.00
2022-08-28T11:07:03.665Z,4884.00
2022-08-28T11:08:03.911Z,4636.00
2022-08-28T11:09:04.170Z,4580.00
2022-08-28T11:10:04.418Z,5148.00
2022-08-28T11:11:04.683Z,5872.00
2022-08-28T11:12:04.948Z,6244.00
2022-08-28T11:13:05.229Z,6420.00
2022-08-28T11:14:05.474Z,6492.00
2022-08-28T11:15:05.739Z,6388.00
2022-08-28T11:16:06.089Z,6612.00
2022-08-28T11:17:06.254Z,7308.00
2022-08-28T11:18:06.541Z,7080.00
2022-08-28T11:19:06.813Z,7292.00
2022-08-28T11:20:07.081Z,8180.00
2022-08-28T11:21:07.359Z,8772.00
2022-08-28T11:22:07.632Z,7896.00
2022-08-28T11:23:07.910Z,7292.00
2022-08-28T11:24:08.181Z,7192.00
2022-08-28T11:25:09.861Z,6568.00
2022-08-28T11:26:08.786Z,5784.00
2022-08-28T11:27:09.036Z,5292.00
2022-08-28T11:28:09.274Z,5080.00
2022-08-28T11:29:09.553Z,5220.00
2022-08-28T11:30:09.830Z,5480.00
2022-08-28T11:31:10.146Z,5556.00
2022-08-28T11:32:11.473Z,5816.00
2022-08-28T11:33:10.667Z,5680.00
2022-08-28T11:34:10.939Z,5392.00
2022-08-28T11:35:11.216Z,4800.00
2022-08-28T11:36:11.494Z,4428.00
2022-08-28T11:37:11.772Z,4304.00
2022-08-28T11:38:12.029Z,4340.00
2022-08-28T11:39:12.317Z,3948.00
2022-08-28T11:40:12.631Z,3596.00
2022-08-28T11:41:12.911Z,3444.00
2022-08-28T11:42:13.160Z,3092.00
2022-08-28T11:43:13.504Z,2672.00
2022-08-28T11:44:13.863Z,2372.00
2022-08-28T11:45:13.962Z,2156.00
2022-08-28T11:46:14.261Z,2156.00
2022-08-28T11:47:15.265Z,2140.00
2022-08-28T11:48:14.872Z,2124.00
2022-08-28T11:49:15.125Z,2108.00
2022-08-28T11:50:15.374Z,2200.00
2022-08-28T11:51:15.650Z,2420.00
2022-08-28T11:52:15.934Z,2628.00
2022-08-28T11:53:17.126Z,2996.00
2022-08-28T11:54:16.462Z,3876.00
2022-08-28T11:55:16.687Z,4504.00
2022-08-28T11:56:28.274Z,4756.00
2022-08-28T11:57:18.297Z,5260.00
2022-08-28T11:58:17.618Z,5148.00
2022-08-28T11:59:17.888Z,4476.00
2022-08-28T12:00:18.149Z,3800.00
2022-08-28T12:01:18.457Z,3296.00
2022-08-28T12:02:18.815Z,2760.00
2022-08-28T12:03:19.110Z,2384.00
2022-08-28T12:04:19.594Z,2160.00
2022-08-28T12:05:19.640Z,2392.00
2022-08-28T12:06:19.902Z,2180.00
2022-08-28T12:07:20.180Z,2156.00
2022-08-28T12:08:20.448Z,2420.00
2022-08-28T12:09:20.704Z,2384.00
2022-08-28T12:10:20.964Z,2320.00
2022-08-28T12:11:21.264Z,2296.00
2022-08-28T12:12:21.514Z,2348.00
2022-08-28T12:13:21.806Z,2444.00
2022-08-28T12:14:22.152Z,2504.00
2022-08-28T12:15:22.561Z,2592.00
2022-08-28T12:16:22.784Z,2644.00
2022-08-28T12:17:24.502Z,2672.00
2022-08-28T12:18:23.297Z,2620.00
2022-08-28T12:19:23.596Z,2508.00
2022-08-28T12:20:23.882Z,2392.00
2022-08-28T12:21:24.156Z,2336.00
2022-08-28T12:22:24.457Z,2280.00
2022-08-28T12:23:24.769Z,2264.00
2022-08-28T12:24:25.056Z,2276.00
2022-08-28T12:25:25.343Z,2324.00
2022-08-28T12:26:25.603Z,2336.00
2022-08-28T12:27:25.874Z,2340.00
2022-08-28T12:28:27.163Z,2348.00
2022-08-28T12:29:27.216Z,2356.00
2022-08-28T12:30:26.886Z,2372.00
2022-08-28T12:31:27.196Z,2372.00
2022-08-28T12:32:27.402Z,2376.00
2022-08-28T12:33:27.705Z,2376.00
2022-08-28T12:34:27.998Z,2392.00
2022-08-28T12:35:30.001Z,2392.00
2022-08-28T12:36:28.606Z,2428.00
2022-08-28T12:37:28.868Z,2488.00
2022-08-28T12:38:29.154Z,2536.00
2022-08-28T12:39:29.532Z,2644.00
2022-08-28T12:40:29.875Z,2868.00
2022-08-28T12:41:30.180Z,3196.00